ASY541 BGSF-BIKF
Flight info
| Callsign | ASY541 |
|---|---|
| Flight time | 1h 15m |
| Altitude | 27000 |
| Route | WUTAN1A WUTAN UW28 DA UT592 NONRO/M076F390 DCT SOPEN DCT INGAN INGAN6N |
| Aircraft | F35/M-SDILOTUVY/C |
Departure
| Time | 2026-05-09 06:01 |
|---|---|
| Airport | Kangerlussuaq International Airport (BGSF) |
Arrival
| Time | 2026-05-09 07:16 |
|---|---|
| Airport | Keflavik International Airport (BIKF) |
| Time | Latitude | Longitude | Altitude | Speed | Heading |
|---|---|---|---|---|---|
| 2026-05-09 05:55 | 67.00959 | -50.70859 | 143 ft | 0 kts | 139° |
| 2026-05-09 05:56 | 67.00951 | -50.70842 | 143 ft | 2 kts | 138° |
| 2026-05-09 05:56 | 67.00926 | -50.70839 | 143 ft | 10 kts | 198° |
| 2026-05-09 05:57 | 67.00880 | -50.71002 | 141 ft | 12 kts | 243° |
| 2026-05-09 05:57 | 67.00838 | -50.71209 | 138 ft | 14 kts | 242° |
| 2026-05-09 05:57 | 67.00789 | -50.71439 | 136 ft | 16 kts | 240° |
| 2026-05-09 05:57 | 67.00733 | -50.71690 | 133 ft | 17 kts | 241° |
| 2026-05-09 05:58 | 67.00771 | -50.71902 | 132 ft | 15 kts | 328° |
| 2026-05-09 05:58 | 67.00859 | -50.72014 | 132 ft | 14 kts | 334° |
| 2026-05-09 05:58 | 67.00941 | -50.72124 | 132 ft | 13 kts | 331° |
| 2026-05-09 05:58 | 67.00985 | -50.72287 | 130 ft | 13 kts | 257° |
| 2026-05-09 05:59 | 67.00951 | -50.72504 | 127 ft | 13 kts | 243° |
| 2026-05-09 05:59 | 67.00907 | -50.72724 | 126 ft | 14 kts | 243° |
| 2026-05-09 05:59 | 67.00840 | -50.73046 | 123 ft | 24 kts | 241° |
| 2026-05-09 05:59 | 67.00757 | -50.73409 | 116 ft | 23 kts | 241° |
| 2026-05-09 06:00 | 67.00681 | -50.73787 | 113 ft | 24 kts | 245° |
| 2026-05-09 06:00 | 67.00606 | -50.74158 | 110 ft | 23 kts | 248° |
| 2026-05-09 06:00 | 67.00580 | -50.74296 | 107 ft | 5 kts | 164° |
| 2026-05-09 06:00 | 67.00597 | -50.74110 | 109 ft | 27 kts | 62° |
| 2026-05-09 06:01 | 67.01058 | -50.71932 | 169 ft | 237 kts | 60° |
| 2026-05-09 06:01 | 67.02093 | -50.67051 | 1306 ft | 277 kts | 62° |
| 2026-05-09 06:01 | 67.02386 | -50.61083 | 5733 ft | 389 kts | 77° |
| 2026-05-09 06:01 | 67.03127 | -50.53071 | 8379 ft | 540 kts | 79° |
| 2026-05-09 06:02 | 67.03527 | -50.42753 | 9311 ft | 613 kts | 95° |
| 2026-05-09 06:02 | 67.03155 | -50.31804 | 10105 ft | 614 kts | 103° |
| 2026-05-09 06:02 | 67.01858 | -50.21506 | 10949 ft | 604 kts | 119° |
| 2026-05-09 06:02 | 66.99775 | -50.12254 | 11773 ft | 598 kts | 125° |
| 2026-05-09 06:03 | 66.97508 | -50.03539 | 12595 ft | 593 kts | 127° |
| 2026-05-09 06:03 | 66.95176 | -49.94839 | 13424 ft | 590 kts | 127° |
| 2026-05-09 06:03 | 66.92891 | -49.86144 | 14173 ft | 589 kts | 125° |
| 2026-05-09 06:03 | 66.91000 | -49.76879 | 14927 ft | 593 kts | 115° |
| 2026-05-09 06:04 | 66.89601 | -49.66952 | 15708 ft | 594 kts | 111° |
| 2026-05-09 06:04 | 66.88557 | -49.56756 | 16479 ft | 598 kts | 103° |
| 2026-05-09 06:04 | 66.88024 | -49.46242 | 17281 ft | 600 kts | 99° |
| 2026-05-09 06:04 | 66.87460 | -49.35860 | 18087 ft | 595 kts | 104° |
| 2026-05-09 06:05 | 66.86710 | -49.25505 | 18817 ft | 597 kts | 103° |
| 2026-05-09 06:05 | 66.86086 | -49.15057 | 19554 ft | 597 kts | 104° |
| 2026-05-09 06:05 | 66.85365 | -49.04671 | 20301 ft | 598 kts | 104° |
| 2026-05-09 06:05 | 66.84682 | -48.94192 | 21072 ft | 600 kts | 104° |
| 2026-05-09 06:06 | 66.83978 | -48.83731 | 21861 ft | 600 kts | 105° |
| 2026-05-09 06:06 | 66.83260 | -48.73290 | 22654 ft | 601 kts | 105° |
| 2026-05-09 06:06 | 66.82549 | -48.62818 | 23482 ft | 602 kts | 106° |
| 2026-05-09 06:06 | 66.81816 | -48.52355 | 24186 ft | 601 kts | 106° |
| 2026-05-09 06:07 | 66.81085 | -48.41909 | 24897 ft | 601 kts | 106° |
| 2026-05-09 06:07 | 66.80346 | -48.31459 | 25639 ft | 601 kts | 106° |
| 2026-05-09 06:07 | 66.79599 | -48.21045 | 26381 ft | 601 kts | 106° |
| 2026-05-09 06:07 | 66.78852 | -48.10689 | 26861 ft | 605 kts | 106° |
| 2026-05-09 06:08 | 66.78086 | -48.00200 | 27040 ft | 608 kts | 106° |
| 2026-05-09 06:08 | 66.77310 | -47.89653 | 27106 ft | 609 kts | 106° |
| 2026-05-09 06:08 | 66.76524 | -47.79098 | 27123 ft | 610 kts | 106° |
| 2026-05-09 06:08 | 66.75734 | -47.68562 | 27127 ft | 610 kts | 106° |
| 2026-05-09 06:09 | 66.74933 | -47.57999 | 27124 ft | 611 kts | 107° |
| 2026-05-09 06:09 | 66.74124 | -47.47433 | 27130 ft | 611 kts | 107° |
| 2026-05-09 06:09 | 66.73308 | -47.36867 | 27136 ft | 611 kts | 107° |
| 2026-05-09 06:09 | 66.72486 | -47.26325 | 27142 ft | 611 kts | 107° |
| 2026-05-09 06:10 | 66.71655 | -47.15765 | 27142 ft | 612 kts | 107° |
| 2026-05-09 06:10 | 66.70818 | -47.05221 | 27137 ft | 612 kts | 107° |
| 2026-05-09 06:10 | 66.69974 | -46.94686 | 27141 ft | 612 kts | 107° |
| 2026-05-09 06:10 | 66.69123 | -46.84148 | 27153 ft | 612 kts | 107° |
| 2026-05-09 06:11 | 66.68262 | -46.73595 | 27161 ft | 613 kts | 107° |
| 2026-05-09 06:11 | 66.67396 | -46.63074 | 27166 ft | 613 kts | 107° |
| 2026-05-09 06:11 | 66.66535 | -46.52697 | 27155 ft | 613 kts | 107° |
| 2026-05-09 06:11 | 66.65651 | -46.42139 | 27155 ft | 613 kts | 107° |
| 2026-05-09 06:12 | 66.64764 | -46.31634 | 27160 ft | 614 kts | 107° |
| 2026-05-09 06:12 | 66.63866 | -46.21091 | 27173 ft | 614 kts | 107° |
| 2026-05-09 06:12 | 66.62964 | -46.10580 | 27168 ft | 614 kts | 107° |
| 2026-05-09 06:12 | 66.62053 | -46.00066 | 27171 ft | 614 kts | 107° |
| 2026-05-09 06:13 | 66.61134 | -45.89559 | 27180 ft | 614 kts | 107° |
| 2026-05-09 06:13 | 66.60211 | -45.79074 | 27181 ft | 614 kts | 107° |
| 2026-05-09 06:13 | 66.59278 | -45.68577 | 27178 ft | 615 kts | 108° |
| 2026-05-09 06:13 | 66.58339 | -45.58085 | 27178 ft | 615 kts | 108° |
| 2026-05-09 06:14 | 66.57403 | -45.47717 | 27183 ft | 615 kts | 108° |
| 2026-05-09 06:14 | 66.56447 | -45.37218 | 27200 ft | 615 kts | 108° |
| 2026-05-09 06:14 | 66.55486 | -45.26743 | 27195 ft | 616 kts | 108° |
| 2026-05-09 06:14 | 66.54517 | -45.16268 | 27198 ft | 616 kts | 108° |
| 2026-05-09 06:15 | 66.53541 | -45.05809 | 27211 ft | 617 kts | 108° |
| 2026-05-09 06:15 | 66.52556 | -44.95321 | 27220 ft | 617 kts | 108° |
| 2026-05-09 06:15 | 66.51563 | -44.84837 | 27228 ft | 617 kts | 108° |
| 2026-05-09 06:15 | 66.50564 | -44.74379 | 27230 ft | 617 kts | 108° |
| 2026-05-09 06:16 | 66.49555 | -44.63890 | 27234 ft | 617 kts | 108° |
| 2026-05-09 06:16 | 66.48541 | -44.53435 | 27241 ft | 618 kts | 108° |
| 2026-05-09 06:16 | 66.47531 | -44.43104 | 27260 ft | 618 kts | 108° |
| 2026-05-09 06:16 | 66.46502 | -44.32648 | 27272 ft | 618 kts | 108° |
| 2026-05-09 06:17 | 66.45466 | -44.22202 | 27278 ft | 619 kts | 108° |
| 2026-05-09 06:17 | 66.44423 | -44.11769 | 27289 ft | 619 kts | 108° |
| 2026-05-09 06:17 | 66.43712 | -44.04701 | 27288 ft | 619 kts | 108° |
| 2026-05-09 06:17 | 66.42668 | -43.94388 | 27298 ft | 620 kts | 108° |
| 2026-05-09 06:18 | 66.41601 | -43.83924 | 27320 ft | 620 kts | 108° |
| 2026-05-09 06:18 | 66.40530 | -43.73497 | 27326 ft | 620 kts | 108° |
| 2026-05-09 06:18 | 66.39452 | -43.63076 | 27338 ft | 621 kts | 109° |
| 2026-05-09 06:18 | 66.38010 | -43.49252 | 27364 ft | 621 kts | 108° |
| 2026-05-09 06:19 | 66.37281 | -43.42321 | 27366 ft | 621 kts | 109° |
| 2026-05-09 06:19 | 66.36178 | -43.31894 | 27382 ft | 622 kts | 109° |
| 2026-05-09 06:19 | 66.35067 | -43.21461 | 27399 ft | 622 kts | 109° |
| 2026-05-09 06:19 | 66.33948 | -43.11029 | 27416 ft | 622 kts | 109° |
| 2026-05-09 06:20 | 66.32824 | -43.00627 | 27428 ft | 622 kts | 109° |
| 2026-05-09 06:20 | 66.31694 | -42.90241 | 27430 ft | 622 kts | 109° |
| 2026-05-09 06:20 | 66.30556 | -42.79853 | 27442 ft | 623 kts | 109° |
| 2026-05-09 06:20 | 66.29411 | -42.69469 | 27460 ft | 623 kts | 109° |
| 2026-05-09 06:21 | 66.28270 | -42.59205 | 27467 ft | 623 kts | 109° |
| 2026-05-09 06:21 | 66.27096 | -42.48706 | 27468 ft | 624 kts | 109° |
| 2026-05-09 06:21 | 66.25928 | -42.38341 | 27482 ft | 624 kts | 109° |
| 2026-05-09 06:21 | 66.24764 | -42.28071 | 27494 ft | 624 kts | 109° |
| 2026-05-09 06:22 | 66.23582 | -42.17719 | 27493 ft | 625 kts | 109° |
| 2026-05-09 06:22 | 66.22390 | -42.07349 | 27511 ft | 625 kts | 109° |
| 2026-05-09 06:22 | 66.21188 | -41.96964 | 27521 ft | 625 kts | 109° |
| 2026-05-09 06:22 | 66.19994 | -41.86716 | 27519 ft | 626 kts | 109° |
| 2026-05-09 06:23 | 66.18779 | -41.76358 | 27523 ft | 626 kts | 109° |
| 2026-05-09 06:23 | 66.17562 | -41.66047 | 27533 ft | 626 kts | 110° |
| 2026-05-09 06:23 | 66.16328 | -41.55665 | 27527 ft | 627 kts | 110° |
| 2026-05-09 06:23 | 66.15092 | -41.45333 | 27535 ft | 627 kts | 110° |
| 2026-05-09 06:24 | 66.13848 | -41.35003 | 27550 ft | 627 kts | 110° |
| 2026-05-09 06:24 | 66.12596 | -41.24668 | 27551 ft | 628 kts | 110° |
| 2026-05-09 06:24 | 66.11336 | -41.14335 | 27541 ft | 628 kts | 110° |
| 2026-05-09 06:24 | 66.10070 | -41.04027 | 27550 ft | 628 kts | 110° |
| 2026-05-09 06:25 | 66.08795 | -40.93709 | 27563 ft | 628 kts | 110° |
| 2026-05-09 06:25 | 66.07530 | -40.83537 | 27555 ft | 629 kts | 110° |
| 2026-05-09 06:25 | 66.06244 | -40.73260 | 27557 ft | 629 kts | 110° |
| 2026-05-09 06:25 | 66.04946 | -40.62949 | 27564 ft | 629 kts | 110° |
| 2026-05-09 06:26 | 66.03643 | -40.52666 | 27568 ft | 629 kts | 110° |
| 2026-05-09 06:26 | 66.02333 | -40.42395 | 27570 ft | 629 kts | 110° |
| 2026-05-09 06:26 | 66.01016 | -40.32136 | 27569 ft | 629 kts | 110° |
| 2026-05-09 06:26 | 65.99693 | -40.21883 | 27575 ft | 630 kts | 110° |
| 2026-05-09 06:27 | 65.98360 | -40.11625 | 27580 ft | 630 kts | 110° |
| 2026-05-09 06:27 | 65.97022 | -40.01380 | 27586 ft | 630 kts | 110° |
| 2026-05-09 06:27 | 65.95670 | -39.91122 | 27583 ft | 631 kts | 111° |
| 2026-05-09 06:27 | 65.94314 | -39.80889 | 27590 ft | 631 kts | 111° |
| 2026-05-09 06:28 | 65.92951 | -39.70656 | 27598 ft | 631 kts | 111° |
| 2026-05-09 06:28 | 65.91599 | -39.60582 | 27593 ft | 631 kts | 111° |
| 2026-05-09 06:28 | 65.90221 | -39.50368 | 27597 ft | 632 kts | 111° |
| 2026-05-09 06:28 | 65.88833 | -39.40142 | 27607 ft | 632 kts | 111° |
| 2026-05-09 06:29 | 65.87441 | -39.29948 | 27606 ft | 632 kts | 111° |
| 2026-05-09 06:29 | 65.86041 | -39.19753 | 27607 ft | 633 kts | 111° |
| 2026-05-09 06:29 | 65.84632 | -39.09555 | 27617 ft | 633 kts | 111° |
| 2026-05-09 06:29 | 65.83216 | -38.99362 | 27609 ft | 633 kts | 111° |
| 2026-05-09 06:30 | 65.81809 | -38.89297 | 27614 ft | 633 kts | 111° |
| 2026-05-09 06:30 | 65.80375 | -38.79100 | 27622 ft | 633 kts | 111° |
| 2026-05-09 06:30 | 65.78938 | -38.68941 | 27626 ft | 633 kts | 111° |
| 2026-05-09 06:30 | 65.77495 | -38.58795 | 27615 ft | 634 kts | 111° |
| 2026-05-09 06:31 | 65.76046 | -38.48670 | 27630 ft | 634 kts | 111° |
| 2026-05-09 06:31 | 65.74610 | -38.38687 | 27621 ft | 634 kts | 111° |
| 2026-05-09 06:31 | 65.73124 | -38.28420 | 27626 ft | 634 kts | 111° |
| 2026-05-09 06:31 | 65.71655 | -38.18321 | 27641 ft | 634 kts | 111° |
| 2026-05-09 06:32 | 65.70196 | -38.08355 | 27626 ft | 634 kts | 111° |
| 2026-05-09 06:32 | 65.68706 | -37.98235 | 27623 ft | 634 kts | 112° |
| 2026-05-09 06:32 | 65.67213 | -37.88150 | 27619 ft | 634 kts | 112° |
| 2026-05-09 06:33 | 65.64211 | -37.68034 | 27621 ft | 634 kts | 112° |
| 2026-05-09 06:33 | 65.62696 | -37.57974 | 27611 ft | 635 kts | 112° |
| 2026-05-09 06:33 | 65.61179 | -37.47945 | 27606 ft | 635 kts | 112° |
| 2026-05-09 06:34 | 65.58152 | -37.27967 | 27590 ft | 636 kts | 108° |
| 2026-05-09 06:34 | 65.57222 | -37.17516 | 27639 ft | 638 kts | 98° |
| 2026-05-09 06:34 | 65.56881 | -37.06830 | 27655 ft | 638 kts | 88° |
| 2026-05-09 06:34 | 65.57078 | -36.96118 | 27634 ft | 639 kts | 85° |
| 2026-05-09 06:35 | 65.57301 | -36.85376 | 27629 ft | 639 kts | 90° |
| 2026-05-09 06:35 | 65.57242 | -36.74645 | 27614 ft | 639 kts | 89° |
| 2026-05-09 06:35 | 65.57347 | -36.63898 | 27617 ft | 639 kts | 89° |
| 2026-05-09 06:35 | 65.57349 | -36.53147 | 27620 ft | 640 kts | 90° |
| 2026-05-09 06:36 | 65.57385 | -36.42404 | 27627 ft | 640 kts | 89° |
| 2026-05-09 06:36 | 65.57410 | -36.31783 | 27629 ft | 640 kts | 90° |
| 2026-05-09 06:36 | 65.57409 | -36.20905 | 27624 ft | 640 kts | 89° |
| 2026-05-09 06:36 | 65.57426 | -36.10300 | 27632 ft | 640 kts | 89° |
| 2026-05-09 06:37 | 65.57414 | -35.99518 | 27629 ft | 640 kts | 90° |
| 2026-05-09 06:37 | 65.57406 | -35.88763 | 27621 ft | 640 kts | 89° |
| 2026-05-09 06:37 | 65.57388 | -35.78020 | 27619 ft | 640 kts | 90° |
| 2026-05-09 06:37 | 65.57359 | -35.67242 | 27624 ft | 640 kts | 90° |
| 2026-05-09 06:38 | 65.57329 | -35.56453 | 27625 ft | 640 kts | 90° |
| 2026-05-09 06:38 | 65.57285 | -35.45691 | 27629 ft | 640 kts | 90° |
| 2026-05-09 06:38 | 65.57236 | -35.34902 | 27620 ft | 640 kts | 90° |
| 2026-05-09 06:38 | 65.57180 | -35.24138 | 27617 ft | 640 kts | 90° |
| 2026-05-09 06:39 | 65.57116 | -35.13494 | 27616 ft | 641 kts | 90° |
| 2026-05-09 06:39 | 65.57044 | -35.02706 | 27616 ft | 641 kts | 90° |
| 2026-05-09 06:39 | 65.56964 | -34.91951 | 27624 ft | 641 kts | 90° |
| 2026-05-09 06:39 | 65.56877 | -34.81158 | 27619 ft | 641 kts | 90° |
| 2026-05-09 06:40 | 65.56782 | -34.70376 | 27616 ft | 641 kts | 90° |
| 2026-05-09 06:40 | 65.56623 | -34.59744 | 27614 ft | 642 kts | 92° |
| 2026-05-09 06:40 | 65.56190 | -34.49007 | 27635 ft | 642 kts | 100° |
| 2026-05-09 06:40 | 65.55317 | -34.38434 | 27637 ft | 642 kts | 102° |
| 2026-05-09 06:41 | 65.54558 | -34.27803 | 27633 ft | 643 kts | 97° |
| 2026-05-09 06:41 | 65.53852 | -34.17151 | 27627 ft | 643 kts | 101° |
| 2026-05-09 06:41 | 65.53059 | -34.06500 | 27619 ft | 643 kts | 99° |
| 2026-05-09 06:41 | 65.52338 | -33.95888 | 27607 ft | 643 kts | 99° |
| 2026-05-09 06:42 | 65.51540 | -33.85202 | 27608 ft | 644 kts | 99° |
| 2026-05-09 06:42 | 65.50778 | -33.74547 | 27602 ft | 644 kts | 99° |
| 2026-05-09 06:42 | 65.50004 | -33.64085 | 27609 ft | 644 kts | 100° |
| 2026-05-09 06:42 | 65.49209 | -33.53448 | 27602 ft | 644 kts | 99° |
| 2026-05-09 06:43 | 65.48417 | -33.42821 | 27597 ft | 645 kts | 100° |
| 2026-05-09 06:43 | 65.47602 | -33.32161 | 27604 ft | 645 kts | 100° |
| 2026-05-09 06:43 | 65.46790 | -33.21519 | 27609 ft | 645 kts | 100° |
| 2026-05-09 06:43 | 65.45966 | -33.10877 | 27608 ft | 645 kts | 100° |
| 2026-05-09 06:44 | 65.45135 | -33.00249 | 27597 ft | 645 kts | 100° |
| 2026-05-09 06:44 | 65.44312 | -32.89794 | 27598 ft | 646 kts | 100° |
| 2026-05-09 06:44 | 65.43464 | -32.79162 | 27601 ft | 646 kts | 100° |
| 2026-05-09 06:44 | 65.42611 | -32.68542 | 27617 ft | 646 kts | 100° |
| 2026-05-09 06:45 | 65.41750 | -32.57934 | 27618 ft | 647 kts | 100° |
| 2026-05-09 06:45 | 65.40883 | -32.47338 | 27614 ft | 646 kts | 100° |
| 2026-05-09 06:45 | 65.40004 | -32.36702 | 27626 ft | 647 kts | 100° |
| 2026-05-09 06:45 | 65.39121 | -32.26107 | 27630 ft | 647 kts | 100° |
| 2026-05-09 06:46 | 65.38230 | -32.15529 | 27619 ft | 647 kts | 100° |
| 2026-05-09 06:46 | 65.37340 | -32.05044 | 27617 ft | 647 kts | 101° |
| 2026-05-09 06:46 | 65.36434 | -31.94465 | 27619 ft | 647 kts | 100° |
| 2026-05-09 06:46 | 65.35520 | -31.83890 | 27607 ft | 647 kts | 101° |
| 2026-05-09 06:47 | 65.34600 | -31.73331 | 27612 ft | 647 kts | 101° |
| 2026-05-09 06:47 | 65.33672 | -31.62776 | 27601 ft | 647 kts | 101° |
| 2026-05-09 06:47 | 65.32747 | -31.52352 | 27581 ft | 647 kts | 101° |
| 2026-05-09 06:47 | 65.31805 | -31.41822 | 27580 ft | 647 kts | 101° |
| 2026-05-09 06:48 | 65.30855 | -31.31282 | 27594 ft | 647 kts | 101° |
| 2026-05-09 06:48 | 65.29897 | -31.20748 | 27590 ft | 647 kts | 101° |
| 2026-05-09 06:48 | 65.28930 | -31.10214 | 27589 ft | 647 kts | 101° |
| 2026-05-09 06:48 | 65.27958 | -30.99709 | 27604 ft | 648 kts | 101° |
| 2026-05-09 06:49 | 65.26990 | -30.89327 | 27598 ft | 647 kts | 101° |
| 2026-05-09 06:49 | 65.26003 | -30.78822 | 27590 ft | 647 kts | 101° |
| 2026-05-09 06:49 | 65.25009 | -30.68337 | 27579 ft | 647 kts | 101° |
| 2026-05-09 06:49 | 65.24007 | -30.57846 | 27588 ft | 647 kts | 101° |
| 2026-05-09 06:50 | 65.22998 | -30.47384 | 27603 ft | 647 kts | 101° |
| 2026-05-09 06:50 | 65.21982 | -30.36919 | 27607 ft | 647 kts | 101° |
| 2026-05-09 06:50 | 65.20962 | -30.26491 | 27584 ft | 647 kts | 102° |
| 2026-05-09 06:50 | 65.19938 | -30.16111 | 27574 ft | 647 kts | 102° |
| 2026-05-09 06:51 | 65.18903 | -30.05712 | 27580 ft | 646 kts | 102° |
| 2026-05-09 06:51 | 65.17781 | -29.95331 | 27581 ft | 647 kts | 107° |
| 2026-05-09 06:51 | 65.16228 | -29.85246 | 27593 ft | 648 kts | 111° |
| 2026-05-09 06:51 | 65.14698 | -29.75175 | 27597 ft | 647 kts | 106° |
| 2026-05-09 06:52 | 65.13288 | -29.65154 | 27582 ft | 648 kts | 109° |
| 2026-05-09 06:52 | 65.11752 | -29.55101 | 27574 ft | 647 kts | 108° |
| 2026-05-09 06:52 | 65.10293 | -29.44993 | 27572 ft | 647 kts | 108° |
| 2026-05-09 06:52 | 65.08762 | -29.34901 | 27574 ft | 648 kts | 108° |
| 2026-05-09 06:53 | 65.07263 | -29.24838 | 27573 ft | 647 kts | 108° |
| 2026-05-09 06:53 | 65.05743 | -29.14763 | 27579 ft | 647 kts | 109° |
| 2026-05-09 06:53 | 65.04214 | -29.04723 | 27580 ft | 647 kts | 108° |
| 2026-05-09 06:53 | 65.02705 | -28.94786 | 27575 ft | 647 kts | 108° |
| 2026-05-09 06:54 | 65.01164 | -28.84778 | 27574 ft | 647 kts | 109° |
| 2026-05-09 06:54 | 64.99624 | -28.74777 | 27582 ft | 647 kts | 108° |
| 2026-05-09 06:54 | 64.98078 | -28.64810 | 27576 ft | 647 kts | 109° |
| 2026-05-09 06:54 | 64.96522 | -28.54836 | 27564 ft | 647 kts | 109° |
| 2026-05-09 06:55 | 64.94958 | -28.44850 | 27564 ft | 647 kts | 109° |
| 2026-05-09 06:55 | 64.93388 | -28.34899 | 27569 ft | 647 kts | 109° |
| 2026-05-09 06:55 | 64.91832 | -28.25079 | 27575 ft | 647 kts | 109° |
| 2026-05-09 06:55 | 64.90252 | -28.15163 | 27570 ft | 647 kts | 109° |
| 2026-05-09 06:56 | 64.88658 | -28.05213 | 27565 ft | 647 kts | 109° |
| 2026-05-09 06:56 | 64.87062 | -27.95304 | 27567 ft | 646 kts | 109° |
| 2026-05-09 06:56 | 64.85465 | -27.85441 | 27571 ft | 646 kts | 109° |
| 2026-05-09 06:56 | 64.83854 | -27.75541 | 27578 ft | 646 kts | 109° |
| 2026-05-09 06:57 | 64.82259 | -27.65792 | 27566 ft | 646 kts | 109° |
| 2026-05-09 06:57 | 64.80640 | -27.55949 | 27575 ft | 646 kts | 109° |
| 2026-05-09 06:57 | 64.79017 | -27.46135 | 27590 ft | 646 kts | 109° |
| 2026-05-09 06:57 | 64.77385 | -27.36312 | 27572 ft | 646 kts | 109° |
| 2026-05-09 06:58 | 64.75742 | -27.26478 | 27575 ft | 646 kts | 109° |
| 2026-05-09 06:58 | 64.74097 | -27.16681 | 27575 ft | 646 kts | 110° |
| 2026-05-09 06:58 | 64.72446 | -27.06896 | 27582 ft | 646 kts | 110° |
| 2026-05-09 06:58 | 64.70863 | -26.97044 | 27584 ft | 644 kts | 104° |
| 2026-05-09 06:59 | 64.69690 | -26.86971 | 27591 ft | 642 kts | 99° |
| 2026-05-09 06:59 | 64.69043 | -26.76691 | 27609 ft | 637 kts | 91° |
| 2026-05-09 06:59 | 64.68742 | -26.66353 | 27597 ft | 637 kts | 90° |
| 2026-05-09 06:59 | 64.68220 | -26.56063 | 27600 ft | 640 kts | 95° |
| 2026-05-09 07:00 | 64.67661 | -26.45759 | 27594 ft | 638 kts | 92° |
| 2026-05-09 07:00 | 64.67175 | -26.35582 | 27592 ft | 639 kts | 94° |
| 2026-05-09 07:00 | 64.66597 | -26.25261 | 27587 ft | 638 kts | 93° |
| 2026-05-09 07:00 | 64.66080 | -26.14974 | 27576 ft | 639 kts | 93° |
| 2026-05-09 07:01 | 64.65509 | -26.04666 | 27586 ft | 639 kts | 94° |
| 2026-05-09 07:01 | 64.64954 | -25.94381 | 27593 ft | 639 kts | 93° |
| 2026-05-09 07:01 | 64.64388 | -25.84082 | 27594 ft | 639 kts | 94° |
| 2026-05-09 07:01 | 64.63807 | -25.73810 | 27594 ft | 639 kts | 94° |
| 2026-05-09 07:02 | 64.63231 | -25.63525 | 27291 ft | 642 kts | 94° |
| 2026-05-09 07:02 | 64.62634 | -25.53190 | 26536 ft | 643 kts | 94° |
| 2026-05-09 07:02 | 64.62033 | -25.42839 | 25785 ft | 643 kts | 94° |
| 2026-05-09 07:02 | 64.61433 | -25.32613 | 25059 ft | 643 kts | 95° |
| 2026-05-09 07:03 | 64.60817 | -25.22296 | 24350 ft | 643 kts | 95° |
| 2026-05-09 07:03 | 64.60189 | -25.11845 | 23616 ft | 643 kts | 95° |
| 2026-05-09 07:03 | 64.59566 | -25.01652 | 22793 ft | 643 kts | 95° |
| 2026-05-09 07:03 | 64.58930 | -24.91345 | 21997 ft | 643 kts | 95° |
| 2026-05-09 07:04 | 64.58286 | -24.81020 | 21229 ft | 644 kts | 95° |
| 2026-05-09 07:04 | 64.57635 | -24.70737 | 20480 ft | 643 kts | 96° |
| 2026-05-09 07:04 | 64.56977 | -24.60421 | 19737 ft | 643 kts | 96° |
| 2026-05-09 07:04 | 64.56013 | -24.50250 | 19063 ft | 646 kts | 107° |
| 2026-05-09 07:05 | 64.54365 | -24.40494 | 18330 ft | 649 kts | 116° |
| 2026-05-09 07:05 | 64.52085 | -24.31445 | 17557 ft | 651 kts | 122° |
| 2026-05-09 07:05 | 64.49569 | -24.22672 | 16775 ft | 651 kts | 121° |
| 2026-05-09 07:05 | 64.48036 | -24.16677 | 16279 ft | 650 kts | 117° |
| 2026-05-09 07:06 | 64.45798 | -24.07542 | 15502 ft | 651 kts | 121° |
| 2026-05-09 07:06 | 64.43425 | -23.98585 | 14763 ft | 651 kts | 120° |
| 2026-05-09 07:06 | 64.41149 | -23.89549 | 14039 ft | 651 kts | 120° |
| 2026-05-09 07:06 | 64.38037 | -23.77688 | 12959 ft | 650 kts | 120° |
| 2026-05-09 07:07 | 64.36478 | -23.71617 | 12426 ft | 650 kts | 120° |
| 2026-05-09 07:07 | 64.34142 | -23.62685 | 11635 ft | 650 kts | 121° |
| 2026-05-09 07:07 | 64.31828 | -23.53874 | 10904 ft | 650 kts | 121° |
| 2026-05-09 07:07 | 64.29491 | -23.44964 | 10150 ft | 649 kts | 122° |
| 2026-05-09 07:08 | 64.26780 | -23.36681 | 9375 ft | 646 kts | 136° |
| 2026-05-09 07:08 | 64.23292 | -23.30228 | 8634 ft | 643 kts | 151° |
| 2026-05-09 07:08 | 64.19294 | -23.25752 | 7940 ft | 640 kts | 159° |
| 2026-05-09 07:08 | 64.15143 | -23.22049 | 7155 ft | 637 kts | 161° |
| 2026-05-09 07:09 | 64.11065 | -23.18647 | 6483 ft | 596 kts | 162° |
| 2026-05-09 07:09 | 64.07248 | -23.15208 | 5631 ft | 587 kts | 156° |
| 2026-05-09 07:09 | 64.03599 | -23.11041 | 4841 ft | 587 kts | 155° |
| 2026-05-09 07:09 | 63.99883 | -23.07206 | 4066 ft | 585 kts | 158° |
| 2026-05-09 07:10 | 63.96209 | -23.03299 | 3671 ft | 580 kts | 154° |
| 2026-05-09 07:10 | 63.92799 | -22.98307 | 3574 ft | 611 kts | 144° |
| 2026-05-09 07:10 | 63.89360 | -22.92130 | 3488 ft | 635 kts | 141° |
| 2026-05-09 07:10 | 63.85859 | -22.85994 | 3512 ft | 634 kts | 146° |
| 2026-05-09 07:11 | 63.82177 | -22.80728 | 3536 ft | 634 kts | 152° |
| 2026-05-09 07:11 | 63.78270 | -22.76146 | 3554 ft | 632 kts | 156° |
| 2026-05-09 07:11 | 63.75104 | -22.69864 | 2831 ft | 636 kts | 98° |
| 2026-05-09 07:11 | 63.75316 | -22.59853 | 2423 ft | 636 kts | 77° |
| 2026-05-09 07:12 | 63.78702 | -22.59304 | 2047 ft | 596 kts | 339° |
| 2026-05-09 07:12 | 63.82850 | -22.60524 | 1856 ft | 622 kts | 359° |
| 2026-05-09 07:12 | 63.87197 | -22.60516 | 1577 ft | 624 kts | 359° |
| 2026-05-09 07:12 | 63.91538 | -22.60485 | 1580 ft | 625 kts | 359° |
| 2026-05-09 07:13 | 63.95905 | -22.60408 | 1158 ft | 627 kts | 0° |
| 2026-05-09 07:13 | 63.98831 | -22.64241 | 1025 ft | 460 kts | 265° |
| 2026-05-09 07:13 | 63.96941 | -22.67609 | 1020 ft | 339 kts | 184° |
| 2026-05-09 07:13 | 63.94810 | -22.67734 | 1390 ft | 281 kts | 182° |
| 2026-05-09 07:14 | 63.92973 | -22.67561 | 1665 ft | 247 kts | 165° |
| 2026-05-09 07:14 | 63.91884 | -22.65329 | 1103 ft | 205 kts | 110° |
| 2026-05-09 07:14 | 63.91920 | -22.62172 | 834 ft | 190 kts | 61° |
| 2026-05-09 07:14 | 63.92886 | -22.60546 | 674 ft | 196 kts | 4° |
| 2026-05-09 07:15 | 63.94340 | -22.60483 | 554 ft | 201 kts | 356° |
| 2026-05-09 07:15 | 63.95569 | -22.60517 | 304 ft | 171 kts | 355° |
| 2026-05-09 07:15 | 63.96692 | -22.60538 | 159 ft | 141 kts | 355° |
| 2026-05-09 07:15 | 63.97488 | -22.60550 | 172 ft | 85 kts | 0° |
| 2026-05-09 07:16 | 63.97980 | -22.60539 | 169 ft | 62 kts | 0° |
| 2026-05-09 07:16 | 63.98340 | -22.60546 | 171 ft | 44 kts | 358° |
| 2026-05-09 07:16 | 63.98625 | -22.60566 | 170 ft | 39 kts | 359° |
| 2026-05-09 07:16 | 63.98831 | -22.60676 | 169 ft | 22 kts | 315° |
| 2026-05-09 07:17 | 63.98874 | -22.60768 | 167 ft | 0 kts | 316° |
| 2026-05-09 07:17 | 63.98930 | -22.60895 | 165 ft | 19 kts | 304° |
| 2026-05-09 07:17 | 63.98928 | -22.60933 | 165 ft | 4 kts | 183° |
| 2026-05-09 07:18 | 63.98863 | -22.60982 | 162 ft | 17 kts | 237° |
| 2026-05-09 07:18 | 63.98854 | -22.61289 | 155 ft | 22 kts | 269° |
| 2026-05-09 07:18 | 63.98853 | -22.61669 | 149 ft | 26 kts | 269° |
| 2026-05-09 07:18 | 63.98851 | -22.62110 | 146 ft | 29 kts | 269° |
| 2026-05-09 07:19 | 63.98852 | -22.62585 | 139 ft | 29 kts | 271° |
| 2026-05-09 07:19 | 63.98851 | -22.62982 | 133 ft | 26 kts | 269° |
| 2026-05-09 07:19 | 63.98849 | -22.63418 | 128 ft | 29 kts | 270° |
| 2026-05-09 07:19 | 63.98851 | -22.63900 | 121 ft | 31 kts | 271° |
| 2026-05-09 07:20 | 63.98852 | -22.64400 | 118 ft | 32 kts | 270° |
| 2026-05-09 07:20 | 63.98854 | -22.64926 | 113 ft | 35 kts | 270° |
| 2026-05-09 07:20 | 63.98839 | -22.65409 | 115 ft | 21 kts | 229° |
| 2026-05-09 07:20 | 63.98729 | -22.65462 | 115 ft | 15 kts | 180° |
| 2026-05-09 07:21 | 63.98624 | -22.65464 | 115 ft | 0 kts | 180° |
| 2026-05-09 07:21 | 63.98578 | -22.65464 | 113 ft | 12 kts | 180° |
| 2026-05-09 07:21 | 63.98491 | -22.65469 | 116 ft | 15 kts | 181° |
| 2026-05-09 07:21 | 63.98353 | -22.65471 | 114 ft | 22 kts | 179° |
| 2026-05-09 07:22 | 63.98210 | -22.65469 | 113 ft | 10 kts | 178° |
| 2026-05-09 07:22 | 63.98167 | -22.65573 | 109 ft | 13 kts | 261° |
| 2026-05-09 07:22 | 63.98153 | -22.65809 | 107 ft | 15 kts | 262° |
| 2026-05-09 07:22 | 63.98146 | -22.65909 | 106 ft | 8 kts | 266° |
| 2026-05-09 07:23 | 63.98175 | -22.65965 | 105 ft | 6 kts | 351° |
| 2026-05-09 07:23 | 63.98193 | -22.65971 | 105 ft | 0 kts | 351° |